Time;durP1;ratioP1;P1;durP2;ratioP2;P2;SDS_P1;SDS_P2;PMS_P1;PMS_P2;Temp;Humidity;BMP_temperature;BMP_pressure;BME280_temperature;BME280_humidity;BME280_pressure;Samples;Min_cycle;Max_cycle;Signal;HPM_P1;HPM_P2
2023/11/02 00:01:34;;;;;;;13.82;6.32;;;8.90;99.90;;;;;;2603976;46;20888;31
2023/11/02 00:04:35;;;;;;;11.20;6.80;;;8.80;99.90;;;;;;2701825;39;20507;31
2023/11/02 00:07:18;;;;;;;15.00;8.77;;;8.80;99.90;;;;;;2701569;39;20576;31
2023/11/02 00:10:17;;;;;;;21.40;10.27;;;8.80;99.90;;;;;;2603094;54;20026;31
2023/11/02 00:13:09;;;;;;;18.40;8.70;;;8.80;99.90;;;;;;2603178;54;21107;31
2023/11/02 00:16:04;;;;;;;14.60;7.30;;;8.80;99.90;;;;;;2620815;46;20073;31
2023/11/02 00:18:39;;;;;;;14.65;8.10;;;8.70;99.90;;;;;;2602967;54;22346;31
2023/11/02 00:21:32;;;;;;;26.75;13.35;;;8.70;99.90;;;;;;2603100;54;20112;31
2023/11/02 00:24:58;;;;;;;20.20;8.45;;;8.70;99.90;;;;;;2603084;54;21583;31
2023/11/02 00:27:51;;;;;;;;;;;;;;;;;;;;;
2023/11/02 00:30:53;;;;;;;16.02;8.02;;;8.60;99.90;;;;;;2602916;54;20026;31
2023/11/02 00:34:08;;;;;;;15.43;7.10;;;8.60;99.90;;;;;;2602835;54;20026;31
2023/11/02 00:36:47;;;;;;;14.68;7.05;;;8.60;99.90;;;;;;2621235;47;22401;31
2023/11/02 00:39:34;;;;;;;14.27;6.57;;;8.50;99.90;;;;;;2603068;54;21374;31
2023/11/02 00:42:13;;;;;;;11.23;6.07;;;8.50;99.90;;;;;;2621433;47;20027;31
2023/11/02 00:51:55;;;;;;;11.57;6.10;;;8.40;99.90;;;;;;2602910;54;20097;31
2023/11/02 00:55:20;;;;;;;9.93;5.85;;;8.50;99.90;;;;;;2602967;54;20034;31
2023/11/02 01:08:06;;;;;;;9.57;5.80;;;8.50;99.90;;;;;;2602614;54;20033;31
2023/11/02 01:10:49;;;;;;;10.10;5.30;;;8.50;99.90;;;;;;2603902;54;20167;31
2023/11/02 01:16:18;;;;;;;11.10;5.10;;;8.40;99.90;;;;;;2603461;54;20037;31
2023/11/02 01:18:59;;;;;;;9.60;5.65;;;8.40;99.90;;;;;;2603561;54;20121;31
2023/11/02 01:21:55;;;;;;;9.40;5.30;;;8.40;99.90;;;;;;2608919;46;20836;31
2023/11/02 01:24:39;;;;;;;12.53;7.03;;;8.50;99.90;;;;;;2702139;39;20520;31
2023/11/02 01:27:23;;;;;;;10.05;5.40;;;8.40;99.90;;;;;;2622103;46;20172;31
2023/11/02 01:33:48;;;;;;;9.10;5.53;;;8.40;99.90;;;;;;2622122;46;20033;31
2023/11/02 01:39:51;;;;;;;14.10;6.50;;;8.40;99.90;;;;;;2603900;54;19989;31
2023/11/02 01:42:46;;;;;;;17.45;7.28;;;8.30;99.90;;;;;;2603473;54;20037;31
2023/11/02 01:45:38;;;;;;;11.10;6.15;;;8.30;99.90;;;;;;2622121;46;20034;31
2023/11/02 01:48:39;;;;;;;10.25;6.35;;;8.30;99.90;;;;;;2603529;54;20961;31
2023/11/02 01:51:29;;;;;;;11.35;6.07;;;8.20;99.90;;;;;;2622228;46;20057;31
2023/11/02 01:57:24;;;;;;;8.93;5.88;;;8.20;99.90;;;;;;2622049;46;20022;31
2023/11/02 02:00:21;;;;;;;10.13;5.20;;;8.20;99.90;;;;;;2603777;54;20030;31
2023/11/02 02:03:05;;;;;;;15.00;6.53;;;8.20;99.90;;;;;;2603514;54;20885;31
2023/11/02 02:06:10;;;;;;;11.57;5.82;;;8.20;99.90;;;;;;2603584;54;20026;31
2023/11/02 02:08:55;;;;;;;13.77;6.18;;;8.10;99.90;;;;;;2603698;54;20081;31
2023/11/02 02:11:58;;;;;;;14.90;5.83;;;8.10;99.90;;;;;;2603517;54;20109;31
2023/11/02 02:14:53;;;;;;;12.10;6.18;;;8.10;99.90;;;;;;2603693;54;21505;31
2023/11/02 02:17:34;;;;;;;14.10;6.43;;;8.10;99.90;;;;;;2621435;46;20112;31
2023/11/02 02:20:24;;;;;;;12.88;6.65;;;8.10;99.90;;;;;;2603520;54;20019;31
2023/11/02 02:30:36;;;;;;;15.23;6.73;;;8.00;99.90;;;;;;2603404;54;20101;31
2023/11/02 02:34:00;;;;;;;11.20;6.15;;;8.00;99.90;;;;;;2603335;54;20037;31
2023/11/02 02:36:48;;;;;;;14.60;6.45;;;7.90;99.90;;;;;;2607098;46;20848;31
2023/11/02 02:42:49;;;;;;;10.80;4.65;;;7.90;99.90;;;;;;2701902;39;20474;31
2023/11/02 02:48:45;;;;;;;14.05;4.70;;;7.90;99.90;;;;;;2603405;54;20874;31
2023/11/02 02:57:19;;;;;;;9.48;4.55;;;7.80;99.90;;;;;;2603533;54;20161;31
2023/11/02 03:00:01;;;;;;;11.30;4.43;;;7.80;99.90;;;;;;2621990;46;20030;31
2023/11/02 03:02:42;;;;;;;7.03;4.00;;;7.80;99.90;;;;;;2603388;54;20096;31
2023/11/02 03:08:36;;;;;;;8.70;4.45;;;7.80;99.90;;;;;;2602915;54;20963;31
2023/11/02 03:11:25;;;;;;;7.38;3.92;;;7.80;99.90;;;;;;2765063;31;20046;31
2023/11/02 03:14:15;;;;;;;11.43;4.55;;;7.80;99.90;;;;;;2701694;39;20458;31
2023/11/02 03:17:12;;;;;;;8.20;3.85;;;7.70;99.90;;;;;;2603183;54;20812;31
2023/11/02 03:20:16;;;;;;;;;;;7.70;99.90;;;;;;2603704;54;20026;31
2023/11/02 03:23:01;;;;;;;5.73;3.40;;;7.70;99.90;;;;;;2603538;54;19941;31
2023/11/02 03:29:17;;;;;;;5.20;3.05;;;7.60;99.90;;;;;;2604003;46;20921;31
2023/11/02 03:32:08;;;;;;;6.25;2.90;;;7.50;99.90;;;;;;2621625;46;20026;31
2023/11/02 03:34:47;;;;;;;6.18;3.10;;;7.50;99.90;;;;;;2603201;54;20869;31
2023/11/02 03:37:24;;;;;;;6.97;3.42;;;7.50;99.90;;;;;;2603420;54;20026;31
2023/11/02 03:40:17;;;;;;;6.40;3.30;;;7.50;99.90;;;;;;2603210;54;20913;31
2023/11/02 03:42:59;;;;;;;7.55;3.35;;;7.50;99.90;;;;;;2603175;54;20946;31
2023/11/02 03:45:52;;;;;;;7.82;3.28;;;7.50;99.90;;;;;;2603185;54;20038;31
2023/11/02 03:48:40;;;;;;;5.35;2.60;;;7.50;99.90;;;;;;2610808;46;20026;31
2023/11/02 03:58:11;;;;;;;5.88;3.15;;;7.40;99.90;;;;;;2602908;54;20967;31
2023/11/02 04:01:06;;;;;;;5.93;2.92;;;7.40;99.90;;;;;;2602858;54;20041;31
2023/11/02 04:07:10;;;;;;;5.88;2.85;;;7.30;99.90;;;;;;2603089;54;20940;31
2023/11/02 04:10:17;;;;;;;6.78;3.22;;;7.30;99.90;;;;;;2609153;46;20097;31
2023/11/02 04:13:00;;;;;;;8.65;3.35;;;7.30;99.90;;;;;;2603258;54;20077;31
2023/11/02 04:15:34;;;;;;;9.50;3.00;;;7.30;99.90;;;;;;2603049;54;20914;31
2023/11/02 04:18:24;;;;;;;8.77;3.53;;;7.20;99.90;;;;;;2602968;54;20844;31
2023/11/02 04:21:33;;;;;;;7.03;3.10;;;7.20;99.90;;;;;;2621066;46;20027;31
2023/11/02 04:24:25;;;;;;;8.40;3.65;;;7.20;99.90;;;;;;2603157;54;20576;31
2023/11/02 04:27:00;;;;;;;5.13;2.92;;;7.20;99.90;;;;;;2701461;39;20346;31
2023/11/02 04:29:40;;;;;;;9.70;3.25;;;7.20;99.90;;;;;;2602844;54;20815;31
2023/11/02 04:32:16;;;;;;;7.85;3.17;;;7.20;99.90;;;;;;2621223;46;20026;31
2023/11/02 04:35:04;;;;;;;5.60;2.85;;;7.20;99.90;;;;;;2621314;46;20018;31
2023/11/02 04:38:15;;;;;;;6.75;2.83;;;7.30;99.90;;;;;;2603127;54;20026;31
2023/11/02 04:41:04;;;;;;;7.60;3.03;;;7.30;99.90;;;;;;2621276;47;20034;31
2023/11/02 04:46:43;;;;;;;5.35;2.80;;;7.20;99.90;;;;;;2603725;54;20057;31
2023/11/02 04:49:19;;;;;;;9.45;3.28;;;7.30;99.90;;;;;;2603913;54;20781;31
2023/11/02 04:52:07;;;;;;;7.13;2.93;;;7.30;99.90;;;;;;2603801;54;20881;31
2023/11/02 04:54:51;;;;;;;6.05;2.92;;;7.30;99.90;;;;;;2603920;54;21165;31
2023/11/02 05:00:33;;;;;;;7.60;3.15;;;7.30;99.90;;;;;;2603565;54;20911;31
2023/11/02 05:03:08;;;;;;;5.72;2.80;;;7.30;99.90;;;;;;2622387;46;20081;31
2023/11/02 05:05:56;;;;;;;6.97;3.57;;;7.30;99.90;;;;;;2622068;46;20034;31
2023/11/02 05:08:31;;;;;;;7.63;2.72;;;7.30;99.90;;;;;;2603708;54;20816;31
2023/11/02 05:14:26;;;;;;;8.65;3.10;;;7.30;99.90;;;;;;2622393;46;20048;31
2023/11/02 05:17:18;;;;;;;9.23;3.65;;;7.20;99.90;;;;;;2603844;54;20587;31
2023/11/02 05:25:31;;;;;;;9.05;3.80;;;7.20;99.90;;;;;;2603345;54;20786;31
2023/11/02 05:31:29;;;;;;;8.65;4.05;;;7.20;99.90;;;;;;2603407;54;20030;31
2023/11/02 05:34:11;;;;;;;10.60;5.55;;;7.20;99.90;;;;;;2621909;46;20807;31
2023/11/02 05:36:55;;;;;;;7.85;4.25;;;7.20;99.90;;;;;;2603607;54;20849;31
2023/11/02 05:39:31;;;;;;;11.20;5.70;;;7.20;99.90;;;;;;2702394;39;20921;31
2023/11/02 05:42:18;;;;;;;7.45;3.95;;;7.20;99.90;;;;;;2622180;46;20026;31
2023/11/02 05:45:14;;;;;;;7.63;4.60;;;7.20;99.90;;;;;;2621907;46;20026;31
2023/11/02 05:57:14;;;;;;;9.85;4.45;;;7.30;99.90;;;;;;2603600;54;20816;31
2023/11/02 06:09:53;;;;;;;11.30;5.28;;;7.20;99.90;;;;;;2602488;54;20065;31
2023/11/02 06:15:53;;;;;;;10.73;5.18;;;7.30;99.90;;;;;;2622089;46;20034;31
2023/11/02 06:18:54;;;;;;;10.18;6.25;;;7.30;99.90;;;;;;2621206;46;20029;31
2023/11/02 06:30:33;;;;;;;11.25;4.60;;;7.40;99.90;;;;;;2603548;54;20018;31
2023/11/02 06:33:34;;;;;;;8.93;4.80;;;7.40;99.90;;;;;;2603445;54;20101;31
2023/11/02 06:36:27;;;;;;;7.65;4.80;;;7.50;99.90;;;;;;2603575;54;20832;31
2023/11/02 06:39:28;;;;;;;8.85;4.90;;;7.50;99.90;;;;;;2603601;54;20915;31
2023/11/02 06:42:09;;;;;;;8.10;5.15;;;7.60;99.90;;;;;;2621571;46;20916;31
2023/11/02 06:44:46;;;;;;;14.27;8.10;;;7.60;99.90;;;;;;2603344;54;20831;31
2023/11/02 06:47:48;;;;;;;35.75;15.18;;;7.70;99.90;;;;;;2603344;54;20971;31
2023/11/02 06:50:27;;;;;;;63.72;23.42;;;8.00;99.90;;;;;;2603386;54;20168;31
2023/11/02 06:53:19;;;;;;;22.80;9.70;;;8.50;99.90;;;;;;2621709;46;20109;31
2023/11/02 06:55:56;;;;;;;14.00;5.10;;;8.70;99.90;;;;;;2621657;46;20103;31
2023/11/02 06:58:31;;;;;;;7.55;4.78;;;8.90;99.90;;;;;;2603048;54;20072;31
2023/11/02 07:01:18;;;;;;;8.45;4.53;;;9.10;99.90;;;;;;2603248;54;20081;31
2023/11/02 07:03:58;;;;;;;17.20;5.05;;;9.20;99.90;;;;;;2603368;54;20865;31
2023/11/02 07:06:41;;;;;;;9.30;4.65;;;9.50;99.90;;;;;;2603121;54;20058;31
2023/11/02 07:09:23;;;;;;;;;;;9.60;99.90;;;;;;2603787;54;20097;31
2023/11/02 07:15:19;;;;;;;15.48;5.72;;;9.40;99.90;;;;;;2603153;54;20603;31
2023/11/02 07:20:54;;;;;;;12.35;5.55;;;9.30;99.90;;;;;;2603224;54;20026;31
2023/11/02 07:23:39;;;;;;;11.40;4.57;;;9.70;99.90;;;;;;2603252;54;20888;31
2023/11/02 07:26:27;;;;;;;6.25;2.90;;;10.10;99.90;;;;;;2621330;46;20027;31
2023/11/02 07:29:04;;;;;;;9.38;3.70;;;10.50;99.90;;;;;;2603434;54;20075;31
2023/11/02 07:31:43;;;;;;;6.47;3.67;;;10.70;99.90;;;;;;2603262;54;20758;31
2023/11/02 07:34:25;;;;;;;6.78;3.72;;;11.10;99.90;;;;;;2602347;54;20973;31
2023/11/02 07:40:36;;;;;;;6.43;2.58;;;11.40;99.90;;;;;;2603168;54;20908;31
2023/11/02 07:43:14;;;;;;;6.55;3.40;;;11.80;99.90;;;;;;2603274;54;20788;31
2023/11/02 07:45:49;;;;;;;5.90;3.10;;;12.00;99.90;;;;;;2701831;39;21394;31
2023/11/02 07:48:27;;;;;;;5.53;2.85;;;12.10;99.90;;;;;;2603323;54;20956;31
2023/11/02 07:51:13;;;;;;;6.38;2.72;;;12.30;99.90;;;;;;2611849;46;20546;31
2023/11/02 07:53:58;;;;;;;12.48;2.90;;;12.40;99.90;;;;;;2603345;54;20053;31
2023/11/02 07:56:44;;;;;;;5.10;2.50;;;12.50;99.90;;;;;;2621561;46;20033;31
2023/11/02 07:59:28;;;;;;;5.00;2.90;;;12.80;99.90;;;;;;2603214;54;19934;31
2023/11/02 08:02:17;;;;;;;9.77;3.17;;;12.90;99.90;;;;;;2603234;54;20845;31
2023/11/02 08:04:53;;;;;;;5.55;3.03;;;13.10;99.90;;;;;;2621830;46;19934;31
2023/11/02 08:07:44;;;;;;;4.00;2.45;;;13.20;99.90;;;;;;2603216;54;20868;31
2023/11/02 08:10:20;;;;;;;5.00;3.08;;;13.30;99.90;;;;;;2603182;54;20052;31
2023/11/02 08:13:24;;;;;;;6.20;2.55;;;13.50;99.90;;;;;;2701389;39;21593;31
2023/11/02 08:16:07;;;;;;;6.63;3.72;;;13.70;99.90;;;;;;2607059;46;20026;31
2023/11/02 08:18:42;;;;;;;7.95;4.07;;;13.90;99.60;;;;;;2602894;54;20875;31
2023/11/02 08:21:38;;;;;;;5.63;3.28;;;14.00;99.70;;;;;;2603044;54;20892;31
2023/11/02 08:24:28;;;;;;;6.70;3.85;;;14.10;96.50;;;;;;2603041;54;20026;31
2023/11/02 08:27:06;;;;;;;5.40;3.20;;;14.20;94.70;;;;;;2602830;54;20031;31
2023/11/02 08:29:45;;;;;;;6.63;3.58;;;14.20;94.20;;;;;;2603064;54;20900;31
2023/11/02 08:32:24;;;;;;;6.43;2.78;;;14.30;95.00;;;;;;2603276;54;20038;31
2023/11/02 08:38:15;;;;;;;5.40;3.20;;;14.50;91.50;;;;;;2602979;54;20911;31
2023/11/02 08:40:57;;;;;;;5.33;2.80;;;14.70;93.30;;;;;;2603189;54;20061;31
2023/11/02 08:43:48;;;;;;;;;;;;;;;;;;;;;
2023/11/02 08:46:31;;;;;;;3.75;2.45;;;14.80;90.40;;;;;;2602913;54;20942;31
2023/11/02 08:49:08;;;;;;;4.32;2.95;;;14.80;90.40;;;;;;2603180;54;20062;31
2023/11/02 08:51:47;;;;;;;5.25;2.90;;;14.70;89.50;;;;;;2603071;54;20796;31
2023/11/02 08:54:25;;;;;;;6.65;2.83;;;14.60;90.20;;;;;;2602927;54;20230;31
2023/11/02 08:57:05;;;;;;;8.15;3.50;;;14.60;92.00;;;;;;2603148;54;20093;31
2023/11/02 08:59:43;;;;;;;;;;;14.60;92.40;;;;;;2603146;54;20892;31
2023/11/02 09:02:22;;;;;;;5.55;2.85;;;14.70;94.60;;;;;;2602662;54;20780;31
2023/11/02 09:04:59;;;;;;;7.80;3.20;;;14.60;92.50;;;;;;2603105;54;20027;31
2023/11/02 09:07:49;;;;;;;4.05;2.45;;;14.60;91.90;;;;;;2602988;54;20839;31
2023/11/02 09:10:24;;;;;;;3.40;2.60;;;14.60;89.80;;;;;;2602339;54;20911;31
2023/11/02 09:13:07;;;;;;;4.57;3.03;;;14.60;90.80;;;;;;2602956;54;20049;31
2023/11/02 09:15:42;;;;;;;4.20;3.37;;;14.60;90.60;;;;;;2621363;47;20030;31
2023/11/02 09:21:12;;;;;;;4.30;2.85;;;14.80;91.60;;;;;;2602621;54;20569;31
2023/11/02 09:23:48;;;;;;;8.07;2.70;;;14.90;87.70;;;;;;2621521;47;20109;31
2023/11/02 09:26:33;;;;;;;7.63;2.50;;;15.00;87.90;;;;;;2621293;47;20182;31
2023/11/02 09:29:21;;;;;;;3.80;2.70;;;15.20;87.20;;;;;;2621561;47;20891;31
2023/11/02 09:32:04;;;;;;;5.85;2.55;;;15.30;82.90;;;;;;2622274;46;20576;31
2023/11/02 09:34:42;;;;;;;3.40;2.50;;;15.30;82.30;;;;;;2621775;46;20058;31
2023/11/02 09:37:18;;;;;;;3.50;2.70;;;15.30;82.00;;;;;;2622369;46;20058;31
2023/11/02 09:40:19;;;;;;;3.13;2.43;;;15.20;80.00;;;;;;2702208;39;20497;31
2023/11/02 09:46:57;;;;;;;5.00;2.47;;;15.20;82.30;;;;;;2702323;39;20509;31
2023/11/02 09:49:34;;;;;;;5.00;2.75;;;15.30;81.20;;;;;;2603665;54;20038;31
2023/11/02 09:52:21;;;;;;;6.18;2.58;;;15.40;79.80;;;;;;2603876;54;20877;31
2023/11/02 09:55:18;;;;;;;4.75;2.90;;;15.50;78.00;;;;;;2603570;54;20026;31
2023/11/02 09:57:54;;;;;;;2.93;2.47;;;15.60;78.30;;;;;;2622009;46;20033;31
2023/11/02 10:00:29;;;;;;;7.20;3.03;;;15.60;76.40;;;;;;2621669;46;20242;31
2023/11/02 10:03:22;;;;;;;4.00;2.50;;;15.60;75.20;;;;;;2603742;54;20030;31
2023/11/02 10:06:41;;;;;;;6.78;2.78;;;15.60;72.70;;;;;;2603581;54;20164;31
2023/11/02 10:12:38;;;;;;;;;;;;;;;;;;;;;
2023/11/02 10:15:17;;;;;;;3.03;2.30;;;15.60;71.70;;;;;;2603577;54;20899;31
2023/11/02 10:28:04;;;;;;;4.15;2.40;;;15.80;75.10;;;;;;2603213;54;20851;31
2023/11/02 10:33:51;;;;;;;4.00;2.00;;;15.90;69.90;;;;;;2603456;54;20141;31
2023/11/02 10:39:22;;;;;;;2.28;1.40;;;16.00;60.20;;;;;;2773567;31;20652;31
2023/11/02 10:42:07;;;;;;;4.93;1.88;;;15.80;57.20;;;;;;2603139;54;20604;31
2023/11/02 10:44:56;;;;;;;2.65;1.60;;;15.70;61.10;;;;;;2603447;54;20027;31
2023/11/02 10:47:37;;;;;;;2.07;1.43;;;15.70;60.70;;;;;;2621878;46;20098;31
2023/11/02 10:53:39;;;;;;;5.63;2.00;;;15.80;64.10;;;;;;2603400;54;20900;31
2023/11/02 10:59:28;;;;;;;5.50;2.05;;;15.90;55.20;;;;;;2621832;46;20033;31
2023/11/02 11:02:06;;;;;;;6.70;2.55;;;16.00;59.30;;;;;;2702015;39;20497;31
2023/11/02 11:04:47;;;;;;;3.20;1.85;;;16.10;57.40;;;;;;2603535;54;20018;31
2023/11/02 11:10:20;;;;;;;3.20;2.03;;;16.10;49.90;;;;;;2702074;39;20437;31
2023/11/02 11:12:56;;;;;;;5.47;2.15;;;16.10;48.90;;;;;;2603343;54;20065;31
2023/11/02 11:15:46;;;;;;;2.90;1.90;;;16.10;48.10;;;;;;2603355;54;20865;31
2023/11/02 11:19:08;;;;;;;4.00;1.90;;;16.00;49.20;;;;;;2603308;54;20895;31
2023/11/02 11:21:51;;;;;;;3.37;1.57;;;15.90;49.00;;;;;;2603277;54;20781;31
2023/11/02 11:24:46;;;;;;;3.90;2.30;;;15.80;52.90;;;;;;2603214;54;20297;31
2023/11/02 11:27:36;;;;;;;2.25;1.50;;;15.70;54.70;;;;;;2621789;46;20912;31
2023/11/02 11:30:39;;;;;;;3.60;1.75;;;15.60;57.10;;;;;;2603358;54;20819;31
2023/11/02 11:36:51;;;;;;;3.08;1.63;;;15.60;59.80;;;;;;2602976;54;20030;31
2023/11/02 11:42:53;;;;;;;5.63;2.47;;;15.50;62.50;;;;;;2603120;54;21029;31
2023/11/02 11:45:32;;;;;;;2.97;1.70;;;15.60;63.80;;;;;;2603187;54;20827;31
2023/11/02 11:51:48;;;;;;;7.10;2.78;;;15.60;61.90;;;;;;2621395;46;20866;31
2023/11/02 11:55:03;;;;;;;3.05;1.30;;;15.60;62.00;;;;;;2621162;46;20858;31
2023/11/02 11:58:09;;;;;;;1.33;1.10;;;15.60;59.50;;;;;;2621479;46;20053;31
2023/11/02 12:00:44;;;;;;;2.10;1.23;;;15.50;59.80;;;;;;2602873;54;20935;31
2023/11/02 12:04:04;;;;;;;3.40;1.85;;;15.50;60.70;;;;;;2603090;54;20927;31
2023/11/02 12:06:52;;;;;;;3.25;1.70;;;15.40;60.30;;;;;;2603446;54;20049;31
2023/11/02 12:09:50;;;;;;;3.25;1.38;;;15.40;63.20;;;;;;2621342;46;20068;31
2023/11/02 12:12:38;;;;;;;3.00;1.45;;;15.40;63.80;;;;;;2621415;46;20460;31
2023/11/02 12:15:41;;;;;;;3.90;1.57;;;15.40;64.30;;;;;;2602979;54;20845;31
2023/11/02 12:18:28;;;;;;;4.13;1.15;;;15.40;67.00;;;;;;2602917;54;20029;31
2023/11/02 12:21:24;;;;;;;3.42;1.40;;;15.40;66.40;;;;;;2621691;46;20888;31
2023/11/02 12:24:25;;;;;;;4.78;1.30;;;15.40;70.10;;;;;;2603242;54;20906;31
2023/11/02 12:27:15;;;;;;;3.92;1.60;;;15.50;71.30;;;;;;2603252;54;20053;31
2023/11/02 12:30:13;;;;;;;3.83;1.50;;;15.60;69.60;;;;;;2602902;54;20026;31
2023/11/02 12:32:57;;;;;;;2.83;1.48;;;15.60;72.60;;;;;;2621409;46;20025;31
2023/11/02 12:35:48;;;;;;;2.40;1.45;;;15.70;71.60;;;;;;2603054;54;20862;31
2023/11/02 12:41:59;;;;;;;2.38;1.20;;;15.80;71.40;;;;;;2610091;46;20900;31
2023/11/02 12:47:59;;;;;;;2.00;0.88;;;15.80;68.10;;;;;;2621516;47;19990;31
2023/11/02 12:50:37;;;;;;;2.50;0.90;;;16.00;70.50;;;;;;2602890;54;20782;31
2023/11/02 12:53:29;;;;;;;2.90;1.00;;;15.90;64.70;;;;;;2606800;47;21190;31
2023/11/02 13:03:15;;;;;;;1.45;0.60;;;15.90;65.00;;;;;;2621486;47;20805;31
2023/11/02 13:24:50;;;;;;;4.47;0.50;;;15.80;53.50;;;;;;2603574;54;20836;31
2023/11/02 13:27:44;;;;;;;3.95;0.90;;;15.90;58.00;;;;;;2603711;54;20029;31
2023/11/02 13:49:26;;;;;;;4.83;0.80;;;15.60;62.30;;;;;;2621447;46;20030;31
2023/11/02 13:55:15;;;;;;;4.47;0.88;;;15.60;66.20;;;;;;2622297;46;19973;31
2023/11/02 13:58:08;;;;;;;1.90;0.70;;;15.50;66.30;;;;;;2603503;54;20033;31
2023/11/02 14:04:22;;;;;;;2.80;0.80;;;15.40;67.40;;;;;;2621858;46;20027;31
2023/11/02 14:07:01;;;;;;;2.75;0.85;;;15.40;68.10;;;;;;2603515;54;21134;31
2023/11/02 14:09:38;;;;;;;3.78;1.38;;;15.40;68.90;;;;;;2603635;54;20840;31
2023/11/02 14:12:41;;;;;;;3.00;1.10;;;15.30;69.30;;;;;;2622054;46;20029;31
2023/11/02 14:15:31;;;;;;;3.73;1.20;;;15.40;70.10;;;;;;2603598;54;20718;31
2023/11/02 14:18:10;;;;;;;2.55;1.20;;;15.30;71.60;;;;;;2603897;54;20022;31
2023/11/02 14:20:54;;;;;;;2.95;1.00;;;15.30;72.60;;;;;;2603447;54;20057;31
2023/11/02 14:23:35;;;;;;;2.45;0.77;;;15.30;72.40;;;;;;2603725;54;20933;31
2023/11/02 14:26:22;;;;;;;1.58;0.82;;;15.30;73.30;;;;;;2603541;54;20046;31
2023/11/02 14:29:21;;;;;;;2.50;0.70;;;15.20;74.40;;;;;;2701962;39;21492;31
2023/11/02 14:32:00;;;;;;;3.17;0.52;;;15.20;74.50;;;;;;2603303;54;20026;31
2023/11/02 14:34:50;;;;;;;2.92;0.68;;;15.20;74.50;;;;;;2602842;54;20941;31
2023/11/02 14:38:19;;;;;;;3.92;0.80;;;15.10;74.60;;;;;;2621595;46;20057;31
2023/11/02 14:51:28;;;;;;;3.83;0.70;;;15.00;75.10;;;;;;2603244;54;21157;31
2023/11/02 14:54:08;;;;;;;3.55;0.55;;;15.00;76.80;;;;;;2603247;54;20043;31
2023/11/02 14:57:21;;;;;;;;;;;;;;;;;;;;;
2023/11/02 15:00:19;;;;;;;2.95;0.70;;;14.90;77.70;;;;;;2603390;54;20026;31
2023/11/02 15:05:49;;;;;;;2.33;0.63;;;14.80;79.40;;;;;;2603270;54;20269;31
2023/11/02 15:08:30;;;;;;;3.05;0.65;;;14.80;81.30;;;;;;2603297;54;20073;31
2023/11/02 15:11:12;;;;;;;5.45;0.95;;;14.80;81.80;;;;;;2603294;54;20052;31
2023/11/02 15:13:54;;;;;;;2.87;1.00;;;14.70;82.20;;;;;;2621708;46;20770;31
2023/11/02 15:16:37;;;;;;;2.00;0.45;;;14.70;82.60;;;;;;2701882;39;20594;31
2023/11/02 15:19:16;;;;;;;2.67;0.60;;;14.70;81.60;;;;;;2603207;54;20921;31
2023/11/02 15:21:56;;;;;;;2.83;0.68;;;14.60;82.90;;;;;;2603448;54;20033;31
2023/11/02 15:24:31;;;;;;;3.08;0.60;;;14.60;83.40;;;;;;2603171;54;20100;31
2023/11/02 15:27:10;;;;;;;1.90;0.77;;;14.60;84.20;;;;;;2701328;39;20465;31
2023/11/02 15:29:45;;;;;;;4.53;0.90;;;14.50;84.90;;;;;;2603482;54;20052;31
2023/11/02 15:32:21;;;;;;;7.10;1.02;;;14.50;85.80;;;;;;2603127;54;20108;31
2023/11/02 15:35:00;;;;;;;3.07;1.03;;;14.50;86.70;;;;;;2621849;46;20929;31
2023/11/02 15:37:35;;;;;;;3.92;1.20;;;14.50;86.70;;;;;;2603238;54;20032;31
2023/11/02 15:40:14;;;;;;;2.88;0.50;;;14.40;87.20;;;;;;2621428;46;20849;31
2023/11/02 15:42:53;;;;;;;5.70;0.80;;;14.30;88.00;;;;;;2603202;54;20737;31
2023/11/02 15:45:29;;;;;;;2.50;0.50;;;14.40;88.80;;;;;;2619438;46;20963;31
2023/11/02 15:48:04;;;;;;;2.55;0.68;;;14.40;89.10;;;;;;2603373;54;20588;31
2023/11/02 15:50:41;;;;;;;2.42;0.60;;;14.40;89.80;;;;;;2621028;46;20097;31
2023/11/02 15:53:19;;;;;;;4.20;1.00;;;14.30;90.10;;;;;;2603115;54;20048;31
2023/11/02 15:55:54;;;;;;;3.90;0.90;;;14.30;90.30;;;;;;2603184;54;20029;31
2023/11/02 15:58:32;;;;;;;3.45;1.00;;;14.30;90.80;;;;;;2603275;54;20080;31
2023/11/02 16:01:08;;;;;;;3.60;1.13;;;14.30;90.20;;;;;;2603294;54;20005;31
2023/11/02 16:03:44;;;;;;;2.97;0.73;;;14.30;90.30;;;;;;2603082;54;20952;31
2023/11/02 16:06:23;;;;;;;2.60;0.95;;;14.30;91.10;;;;;;2773198;31;20619;31
2023/11/02 16:08:58;;;;;;;4.53;1.55;;;14.30;90.60;;;;;;2603401;54;20821;31
2023/11/02 16:11:36;;;;;;;2.65;1.05;;;14.30;90.30;;;;;;2719968;39;21491;31
2023/11/02 16:14:18;;;;;;;2.30;0.80;;;14.30;90.10;;;;;;2603154;54;20042;31
2023/11/02 16:16:56;;;;;;;3.38;1.27;;;14.30;90.10;;;;;;2621619;46;20049;31
2023/11/02 16:19:32;;;;;;;3.80;1.08;;;14.30;90.30;;;;;;2621594;46;20033;31
2023/11/02 16:22:08;;;;;;;3.13;1.20;;;14.30;90.30;;;;;;2603377;54;20825;31
2023/11/02 16:24:44;;;;;;;3.30;0.75;;;14.30;90.70;;;;;;2603463;54;20037;31
2023/11/02 16:27:19;;;;;;;3.67;1.00;;;14.30;90.60;;;;;;2603536;54;20823;31
2023/11/02 16:29:54;;;;;;;2.20;1.00;;;14.30;91.10;;;;;;2603011;54;20042;31
2023/11/02 16:32:33;;;;;;;7.40;1.40;;;14.30;91.10;;;;;;2603226;54;20125;31
2023/11/02 16:35:09;;;;;;;4.80;1.10;;;14.30;91.20;;;;;;2603186;54;20027;31
2023/11/02 16:38:04;;;;;;;2.08;0.85;;;14.20;91.70;;;;;;2603184;54;20153;31
2023/11/02 16:40:39;;;;;;;5.60;1.50;;;14.20;92.10;;;;;;2603186;54;20960;31
2023/11/02 16:43:17;;;;;;;3.60;1.17;;;14.20;92.10;;;;;;2603234;54;20026;31
2023/11/02 16:45:53;;;;;;;7.85;2.67;;;14.20;92.30;;;;;;2603066;54;20027;31
2023/11/02 16:48:31;;;;;;;2.92;1.38;;;14.20;92.30;;;;;;2602944;54;20042;31
2023/11/02 16:51:06;;;;;;;4.80;1.48;;;14.20;92.40;;;;;;2621793;47;20038;31
2023/11/02 16:53:41;;;;;;;7.15;2.40;;;14.20;92.50;;;;;;2603036;54;20920;31
2023/11/02 16:56:16;;;;;;;14.30;3.70;;;14.20;92.40;;;;;;2621778;47;20049;31
2023/11/02 16:58:51;;;;;;;11.80;4.15;;;14.20;92.30;;;;;;2603292;54;20022;31
2023/11/02 17:01:27;;;;;;;9.20;6.35;;;14.20;92.20;;;;;;2602879;54;20946;31
2023/11/02 17:04:07;;;;;;;20.60;6.63;;;14.20;92.20;;;;;;2602996;54;20065;31
2023/11/02 17:06:43;;;;;;;12.77;3.70;;;14.20;92.50;;;;;;2602802;54;20738;31
2023/11/02 17:09:18;;;;;;;10.35;2.72;;;14.20;92.50;;;;;;2621528;47;20030;31
2023/11/02 17:11:52;;;;;;;;;;;14.20;92.60;;;;;;2602486;54;22456;31
2023/11/02 17:14:26;;;;;;;10.82;2.40;;;14.20;92.80;;;;;;2602822;54;20939;31
2023/11/02 17:17:03;;;;;;;7.47;3.10;;;14.10;93.10;;;;;;2602965;54;20031;31
2023/11/02 17:19:43;;;;;;;7.95;2.10;;;14.10;93.50;;;;;;2602804;54;20042;31
2023/11/02 17:25:42;;;;;;;3.85;1.40;;;14.00;93.90;;;;;;2602665;54;20030;31
2023/11/02 17:28:17;;;;;;;6.70;1.98;;;14.00;93.90;;;;;;2621138;47;20060;31
2023/11/02 17:37:26;;;;;;;6.32;2.35;;;13.90;93.00;;;;;;2602830;54;20027;31
2023/11/02 17:46:20;;;;;;;25.63;8.73;;;13.90;94.40;;;;;;2600904;54;20007;31
2023/11/02 18:01:19;;;;;;;10.20;2.30;;;13.80;96.70;;;;;;2702790;39;20584;31
2023/11/02 18:04:19;;;;;;;11.55;2.95;;;13.70;97.10;;;;;;2621876;46;20904;31
2023/11/02 18:06:59;;;;;;;20.35;3.97;;;13.70;97.50;;;;;;2603744;54;20813;31
2023/11/02 18:09:45;;;;;;;46.15;16.00;;;13.70;97.70;;;;;;2621959;46;20046;31
2023/11/02 18:12:33;;;;;;;28.60;10.60;;;13.70;98.40;;;;;;2603701;54;20043;31
2023/11/02 18:15:10;;;;;;;16.65;5.60;;;13.70;98.80;;;;;;2621970;46;20038;31
2023/11/02 18:21:02;;;;;;;12.15;4.35;;;13.70;99.10;;;;;;2603576;54;20601;31
2023/11/02 18:23:50;;;;;;;9.85;3.45;;;13.60;99.30;;;;;;2621689;46;20927;31
2023/11/02 18:26:27;;;;;;;8.13;2.65;;;13.60;99.90;;;;;;2603479;54;20022;31
2023/11/02 18:29:09;;;;;;;6.10;2.38;;;13.70;99.80;;;;;;2621765;46;20098;31
2023/11/02 18:31:45;;;;;;;7.83;5.53;;;13.70;99.90;;;;;;2621922;46;20027;31
2023/11/02 18:34:27;;;;;;;4.97;2.20;;;13.70;99.90;;;;;;2603552;54;20481;31
2023/11/02 18:37:07;;;;;;;3.97;2.08;;;13.70;99.90;;;;;;2603442;54;20065;31
2023/11/02 18:39:44;;;;;;;4.25;2.05;;;13.70;99.90;;;;;;2603581;54;20109;31
2023/11/02 18:42:29;;;;;;;10.13;3.00;;;13.60;99.90;;;;;;2603384;54;20904;31
2023/11/02 18:45:16;;;;;;;10.05;4.32;;;13.60;99.90;;;;;;2621708;46;20791;31
2023/11/02 18:47:57;;;;;;;9.90;4.88;;;13.70;99.90;;;;;;2603515;54;20030;31
2023/11/02 18:50:42;;;;;;;5.97;1.90;;;13.60;99.90;;;;;;2603354;54;20812;31
2023/11/02 18:53:17;;;;;;;4.82;1.95;;;13.60;99.90;;;;;;2603668;54;21024;31
2023/11/02 18:55:52;;;;;;;6.03;2.20;;;13.70;99.90;;;;;;2603591;54;20055;31
2023/11/02 18:58:29;;;;;;;5.77;1.80;;;13.70;99.90;;;;;;2621919;46;20793;31
2023/11/02 19:01:05;;;;;;;6.32;1.73;;;13.60;99.90;;;;;;2603430;54;20585;31
2023/11/02 19:03:39;;;;;;;5.20;2.20;;;13.70;99.90;;;;;;2603312;54;20057;31
2023/11/02 19:06:17;;;;;;;6.20;3.40;;;13.70;99.90;;;;;;2702151;39;21043;31
2023/11/02 19:08:52;;;;;;;4.95;2.00;;;13.70;99.90;;;;;;2603336;54;20167;31
2023/11/02 19:11:28;;;;;;;10.10;2.40;;;13.80;99.90;;;;;;2603287;54;20033;31
2023/11/02 19:14:02;;;;;;;8.90;2.30;;;13.80;99.90;;;;;;2621869;46;20235;31